sensor_id;sensor_type;location;lat;lon;timestamp;temperature;humidity
4556;DHT22;2290;48.674;9.018;2022-09-12T00:00:48;13.40;99.90
4556;DHT22;2290;48.674;9.018;2022-09-12T00:03:14;13.30;99.90
4556;DHT22;2290;48.674;9.018;2022-09-12T00:05:41;13.30;99.90
4556;DHT22;2290;48.674;9.018;2022-09-12T00:08:07;13.20;99.90
4556;DHT22;2290;48.674;9.018;2022-09-12T00:10:37;13.10;99.90
4556;DHT22;2290;48.674;9.018;2022-09-12T00:13:04;13.10;99.90
4556;DHT22;2290;48.674;9.018;2022-09-12T00:15:29;13.20;99.90
4556;DHT22;2290;48.674;9.018;2022-09-12T00:17:55;13.10;99.90
4556;DHT22;2290;48.674;9.018;2022-09-12T00:20:21;13.20;99.90
4556;DHT22;2290;48.674;9.018;2022-09-12T00:22:46;13.10;99.90
4556;DHT22;2290;48.674;9.018;2022-09-12T00:25:12;13.20;99.90
4556;DHT22;2290;48.674;9.018;2022-09-12T00:27:37;13.00;99.90
4556;DHT22;2290;48.674;9.018;2022-09-12T00:30:04;13.10;99.90
4556;DHT22;2290;48.674;9.018;2022-09-12T00:32:30;13.10;99.90
4556;DHT22;2290;48.674;9.018;2022-09-12T00:34:55;13.10;99.90
4556;DHT22;2290;48.674;9.018;2022-09-12T00:37:21;13.00;99.90
4556;DHT22;2290;48.674;9.018;2022-09-12T00:39:46;12.90;99.90
4556;DHT22;2290;48.674;9.018;2022-09-12T00:42:12;12.90;99.90
4556;DHT22;2290;48.674;9.018;2022-09-12T00:47:09;12.90;99.90
4556;DHT22;2290;48.674;9.018;2022-09-12T00:49:59;12.90;99.90
4556;DHT22;2290;48.674;9.018;2022-09-12T00:57:22;12.90;99.90
4556;DHT22;2290;48.674;9.018;2022-09-12T00:59:57;13.00;99.90
4556;DHT22;2290;48.674;9.018;2022-09-12T01:02:23;12.80;99.90
4556;DHT22;2290;48.674;9.018;2022-09-12T01:04:49;12.80;99.90
4556;DHT22;2290;48.674;9.018;2022-09-12T01:07:16;12.90;99.90
4556;DHT22;2290;48.674;9.018;2022-09-12T01:09:43;12.80;99.90
4556;DHT22;2290;48.674;9.018;2022-09-12T01:12:10;12.80;99.90
4556;DHT22;2290;48.674;9.018;2022-09-12T01:14:37;12.80;99.90
4556;DHT22;2290;48.674;9.018;2022-09-12T01:17:05;12.80;99.90
4556;DHT22;2290;48.674;9.018;2022-09-12T01:28:08;12.70;99.90
4556;DHT22;2290;48.674;9.018;2022-09-12T01:30:48;12.70;99.90
4556;DHT22;2290;48.674;9.018;2022-09-12T01:33:38;12.70;99.90
4556;DHT22;2290;48.674;9.018;2022-09-12T01:38:41;12.70;99.90
4556;DHT22;2290;48.674;9.018;2022-09-12T01:41:24;13.50;99.90
4556;DHT22;2290;48.674;9.018;2022-09-12T01:44:46;12.70;99.90
4556;DHT22;2290;48.674;9.018;2022-09-12T01:47:21;12.70;99.90
4556;DHT22;2290;48.674;9.018;2022-09-12T01:49:56;12.60;99.90
4556;DHT22;2290;48.674;9.018;2022-09-12T01:52:41;12.50;99.90
4556;DHT22;2290;48.674;9.018;2022-09-12T01:56:11;12.50;99.90
4556;DHT22;2290;48.674;9.018;2022-09-12T01:58:20;12.50;99.90
4556;DHT22;2290;48.674;9.018;2022-09-12T02:00:51;12.50;99.90
4556;DHT22;2290;48.674;9.018;2022-09-12T02:03:23;12.40;99.90
4556;DHT22;2290;48.674;9.018;2022-09-12T02:05:53;12.40;99.90
4556;DHT22;2290;48.674;9.018;2022-09-12T02:08:32;12.40;99.90
4556;DHT22;2290;48.674;9.018;2022-09-12T02:11:07;12.40;99.90
4556;DHT22;2290;48.674;9.018;2022-09-12T02:13:53;12.20;99.90
4556;DHT22;2290;48.674;9.018;2022-09-12T02:16:36;12.20;99.90
4556;DHT22;2290;48.674;9.018;2022-09-12T02:19:11;12.20;99.90
4556;DHT22;2290;48.674;9.018;2022-09-12T02:21:48;12.30;99.90
4556;DHT22;2290;48.674;9.018;2022-09-12T02:24:16;12.30;99.90
4556;DHT22;2290;48.674;9.018;2022-09-12T02:27:14;12.20;99.90
4556;DHT22;2290;48.674;9.018;2022-09-12T02:29:42;12.10;99.90
4556;DHT22;2290;48.674;9.018;2022-09-12T02:35:04;12.10;99.90
4556;DHT22;2290;48.674;9.018;2022-09-12T02:37:58;12.00;99.90
4556;DHT22;2290;48.674;9.018;2022-09-12T02:40:28;11.90;99.90
4556;DHT22;2290;48.674;9.018;2022-09-12T02:42:53;11.90;99.90
4556;DHT22;2290;48.674;9.018;2022-09-12T02:45:19;11.90;99.90
4556;DHT22;2290;48.674;9.018;2022-09-12T02:48:33;11.90;99.90
4556;DHT22;2290;48.674;9.018;2022-09-12T02:50:40;12.00;99.90
4556;DHT22;2290;48.674;9.018;2022-09-12T02:53:08;12.00;99.90
4556;DHT22;2290;48.674;9.018;2022-09-12T02:55:36;12.10;99.90
4556;DHT22;2290;48.674;9.018;2022-09-12T02:58:05;12.10;99.90
4556;DHT22;2290;48.674;9.018;2022-09-12T03:00:36;12.00;99.90
4556;DHT22;2290;48.674;9.018;2022-09-12T03:03:10;12.00;99.90
4556;DHT22;2290;48.674;9.018;2022-09-12T03:06:15;12.10;99.90
4556;DHT22;2290;48.674;9.018;2022-09-12T03:14:41;12.00;99.90
4556;DHT22;2290;48.674;9.018;2022-09-12T03:20:49;11.80;99.90
4556;DHT22;2290;48.674;9.018;2022-09-12T03:23:27;11.80;99.90
4556;DHT22;2290;48.674;9.018;2022-09-12T03:26:46;11.90;99.90
4556;DHT22;2290;48.674;9.018;2022-09-12T03:29:13;11.70;99.90
4556;DHT22;2290;48.674;9.018;2022-09-12T03:31:51;11.70;99.90
4556;DHT22;2290;48.674;9.018;2022-09-12T03:34:18;11.80;99.90
4556;DHT22;2290;48.674;9.018;2022-09-12T03:36:44;11.70;99.90
4556;DHT22;2290;48.674;9.018;2022-09-12T03:39:09;11.70;99.90
4556;DHT22;2290;48.674;9.018;2022-09-12T03:41:35;11.60;99.90
4556;DHT22;2290;48.674;9.018;2022-09-12T03:44:01;11.40;99.90
4556;DHT22;2290;48.674;9.018;2022-09-12T03:46:26;11.30;99.90
4556;DHT22;2290;48.674;9.018;2022-09-12T03:48:52;11.30;99.90
4556;DHT22;2290;48.674;9.018;2022-09-12T03:51:17;11.40;99.90
4556;DHT22;2290;48.674;9.018;2022-09-12T03:53:43;11.40;99.90
4556;DHT22;2290;48.674;9.018;2022-09-12T03:56:10;11.50;99.90
4556;DHT22;2290;48.674;9.018;2022-09-12T03:58:36;11.60;99.90
4556;DHT22;2290;48.674;9.018;2022-09-12T04:01:10;11.60;99.90
4556;DHT22;2290;48.674;9.018;2022-09-12T04:03:38;11.60;99.90
4556;DHT22;2290;48.674;9.018;2022-09-12T04:06:04;11.40;99.90
4556;DHT22;2290;48.674;9.018;2022-09-12T04:08:30;11.30;99.90
4556;DHT22;2290;48.674;9.018;2022-09-12T04:11:04;11.40;99.90
4556;DHT22;2290;48.674;9.018;2022-09-12T04:13:30;11.40;99.90
4556;DHT22;2290;48.674;9.018;2022-09-12T04:15:59;11.40;99.90
4556;DHT22;2290;48.674;9.018;2022-09-12T04:18:25;11.40;99.90
4556;DHT22;2290;48.674;9.018;2022-09-12T04:20:51;11.40;99.90
4556;DHT22;2290;48.674;9.018;2022-09-12T04:23:17;11.40;99.90
4556;DHT22;2290;48.674;9.018;2022-09-12T04:25:42;11.40;99.90
4556;DHT22;2290;48.674;9.018;2022-09-12T04:28:08;11.40;99.90
4556;DHT22;2290;48.674;9.018;2022-09-12T04:30:33;11.50;99.90
4556;DHT22;2290;48.674;9.018;2022-09-12T04:32:59;11.60;99.90
4556;DHT22;2290;48.674;9.018;2022-09-12T04:35:25;11.50;99.90
4556;DHT22;2290;48.674;9.018;2022-09-12T04:37:52;11.40;99.90
4556;DHT22;2290;48.674;9.018;2022-09-12T04:40:18;11.90;99.90
4556;DHT22;2290;48.674;9.018;2022-09-12T04:42:43;11.30;99.90
4556;DHT22;2290;48.674;9.018;2022-09-12T04:45:09;11.30;99.90
4556;DHT22;2290;48.674;9.018;2022-09-12T04:47:35;11.40;99.90
4556;DHT22;2290;48.674;9.018;2022-09-12T04:50:00;11.40;99.90
4556;DHT22;2290;48.674;9.018;2022-09-12T04:52:26;11.90;99.90
4556;DHT22;2290;48.674;9.018;2022-09-12T04:54:53;11.40;99.90
4556;DHT22;2290;48.674;9.018;2022-09-12T04:57:18;11.40;99.90
4556;DHT22;2290;48.674;9.018;2022-09-12T04:59:44;11.50;99.90
4556;DHT22;2290;48.674;9.018;2022-09-12T05:02:10;11.40;99.90
4556;DHT22;2290;48.674;9.018;2022-09-12T05:04:35;11.20;99.90
4556;DHT22;2290;48.674;9.018;2022-09-12T05:07:01;11.20;99.90
4556;DHT22;2290;48.674;9.018;2022-09-12T05:09:27;11.30;99.90
4556;DHT22;2290;48.674;9.018;2022-09-12T05:11:54;11.30;99.90
4556;DHT22;2290;48.674;9.018;2022-09-12T05:14:20;11.20;99.90
4556;DHT22;2290;48.674;9.018;2022-09-12T05:16:47;11.20;99.90
4556;DHT22;2290;48.674;9.018;2022-09-12T05:19:14;11.20;99.90
4556;DHT22;2290;48.674;9.018;2022-09-12T05:21:39;11.20;99.90
4556;DHT22;2290;48.674;9.018;2022-09-12T05:24:05;11.30;99.90
4556;DHT22;2290;48.674;9.018;2022-09-12T05:26:32;11.30;99.90
4556;DHT22;2290;48.674;9.018;2022-09-12T05:28:58;11.40;99.90
4556;DHT22;2290;48.674;9.018;2022-09-12T05:31:26;11.40;99.90
4556;DHT22;2290;48.674;9.018;2022-09-12T05:33:53;11.40;99.90
4556;DHT22;2290;48.674;9.018;2022-09-12T05:36:25;11.50;99.90
4556;DHT22;2290;48.674;9.018;2022-09-12T05:38:51;12.10;99.90
4556;DHT22;2290;48.674;9.018;2022-09-12T05:41:19;11.60;99.90
4556;DHT22;2290;48.674;9.018;2022-09-12T05:43:46;12.20;99.90
4556;DHT22;2290;48.674;9.018;2022-09-12T05:46:17;11.80;99.90
4556;DHT22;2290;48.674;9.018;2022-09-12T05:48:45;11.60;99.90
4556;DHT22;2290;48.674;9.018;2022-09-12T05:51:17;11.80;99.90
4556;DHT22;2290;48.674;9.018;2022-09-12T05:53:51;11.80;99.90
4556;DHT22;2290;48.674;9.018;2022-09-12T05:56:19;11.90;99.90
4556;DHT22;2290;48.674;9.018;2022-09-12T05:58:52;11.80;99.90
4556;DHT22;2290;48.674;9.018;2022-09-12T06:01:18;11.80;99.90
4556;DHT22;2290;48.674;9.018;2022-09-12T06:03:49;11.90;99.90
4556;DHT22;2290;48.674;9.018;2022-09-12T06:06:18;12.00;99.90
4556;DHT22;2290;48.674;9.018;2022-09-12T06:08:45;12.00;99.90
4556;DHT22;2290;48.674;9.018;2022-09-12T06:11:17;12.10;99.90
4556;DHT22;2290;48.674;9.018;2022-09-12T06:13:43;12.20;99.90
4556;DHT22;2290;48.674;9.018;2022-09-12T06:16:14;12.30;99.90
4556;DHT22;2290;48.674;9.018;2022-09-12T06:18:48;12.50;99.90
4556;DHT22;2290;48.674;9.018;2022-09-12T06:21:14;12.60;99.90
4556;DHT22;2290;48.674;9.018;2022-09-12T06:23:39;12.70;99.90
4556;DHT22;2290;48.674;9.018;2022-09-12T06:26:09;12.80;99.90
4556;DHT22;2290;48.674;9.018;2022-09-12T06:28:37;13.00;99.90
4556;DHT22;2290;48.674;9.018;2022-09-12T06:31:07;13.10;99.90
4556;DHT22;2290;48.674;9.018;2022-09-12T06:33:34;13.30;99.90
4556;DHT22;2290;48.674;9.018;2022-09-12T06:38:33;13.50;99.90
4556;DHT22;2290;48.674;9.018;2022-09-12T06:41:02;14.30;99.90
4556;DHT22;2290;48.674;9.018;2022-09-12T06:43:29;13.70;99.90
4556;DHT22;2290;48.674;9.018;2022-09-12T06:45:55;13.90;99.90
4556;DHT22;2290;48.674;9.018;2022-09-12T06:48:20;14.20;99.90
4556;DHT22;2290;48.674;9.018;2022-09-12T06:50:57;14.50;99.90
4556;DHT22;2290;48.674;9.018;2022-09-12T06:53:23;14.70;99.90
4556;DHT22;2290;48.674;9.018;2022-09-12T06:56:00;14.90;99.90
4556;DHT22;2290;48.674;9.018;2022-09-12T06:58:28;15.20;99.90
4556;DHT22;2290;48.674;9.018;2022-09-12T07:01:04;15.40;99.90
4556;DHT22;2290;48.674;9.018;2022-09-12T07:03:30;15.50;99.90
4556;DHT22;2290;48.674;9.018;2022-09-12T07:05:56;15.60;99.90
4556;DHT22;2290;48.674;9.018;2022-09-12T07:08:22;15.80;99.90
4556;DHT22;2290;48.674;9.018;2022-09-12T07:10:48;15.90;99.90
4556;DHT22;2290;48.674;9.018;2022-09-12T07:13:13;15.90;99.90
4556;DHT22;2290;48.674;9.018;2022-09-12T07:15:39;16.00;99.90
4556;DHT22;2290;48.674;9.018;2022-09-12T07:18:05;16.10;99.90
4556;DHT22;2290;48.674;9.018;2022-09-12T07:20:31;16.20;99.90
4556;DHT22;2290;48.674;9.018;2022-09-12T07:23:00;16.40;99.90
4556;DHT22;2290;48.674;9.018;2022-09-12T07:25:25;16.50;99.90
4556;DHT22;2290;48.674;9.018;2022-09-12T07:27:51;17.00;99.90
4556;DHT22;2290;48.674;9.018;2022-09-12T07:30:17;16.80;99.90
4556;DHT22;2290;48.674;9.018;2022-09-12T07:32:43;16.90;99.90
4556;DHT22;2290;48.674;9.018;2022-09-12T07:35:08;17.10;99.90
4556;DHT22;2290;48.674;9.018;2022-09-12T07:37:34;17.20;99.90
4556;DHT22;2290;48.674;9.018;2022-09-12T07:40:00;17.20;99.90
4556;DHT22;2290;48.674;9.018;2022-09-12T07:42:27;17.40;99.90
4556;DHT22;2290;48.674;9.018;2022-09-12T07:44:53;17.40;99.90
4556;DHT22;2290;48.674;9.018;2022-09-12T07:47:19;17.50;99.90
4556;DHT22;2290;48.674;9.018;2022-09-12T07:49:44;17.70;99.90
4556;DHT22;2290;48.674;9.018;2022-09-12T07:52:10;17.70;99.90
4556;DHT22;2290;48.674;9.018;2022-09-12T07:54:35;17.80;99.90
4556;DHT22;2290;48.674;9.018;2022-09-12T07:57:01;17.90;99.90
4556;DHT22;2290;48.674;9.018;2022-09-12T07:59:27;17.90;99.90
4556;DHT22;2290;48.674;9.018;2022-09-12T08:01:52;18.00;99.90
4556;DHT22;2290;48.674;9.018;2022-09-12T08:04:18;18.20;99.90
4556;DHT22;2290;48.674;9.018;2022-09-12T08:06:44;18.30;99.90
4556;DHT22;2290;48.674;9.018;2022-09-12T08:09:09;18.40;99.90
4556;DHT22;2290;48.674;9.018;2022-09-12T08:11:38;18.50;99.90
4556;DHT22;2290;48.674;9.018;2022-09-12T08:14:03;18.50;99.90
4556;DHT22;2290;48.674;9.018;2022-09-12T08:16:31;18.60;99.90
4556;DHT22;2290;48.674;9.018;2022-09-12T08:18:59;18.70;99.90
4556;DHT22;2290;48.674;9.018;2022-09-12T08:21:27;18.70;99.90
4556;DHT22;2290;48.674;9.018;2022-09-12T08:24:04;18.90;99.90
4556;DHT22;2290;48.674;9.018;2022-09-12T08:26:31;19.00;99.90
4556;DHT22;2290;48.674;9.018;2022-09-12T08:28:57;19.00;99.90
4556;DHT22;2290;48.674;9.018;2022-09-12T08:31:25;19.10;99.90
4556;DHT22;2290;48.674;9.018;2022-09-12T08:33:53;19.20;99.90
4556;DHT22;2290;48.674;9.018;2022-09-12T08:36:21;19.30;99.90
4556;DHT22;2290;48.674;9.018;2022-09-12T08:38:55;19.30;99.90
4556;DHT22;2290;48.674;9.018;2022-09-12T08:41:39;19.40;99.90
4556;DHT22;2290;48.674;9.018;2022-09-12T08:44:20;19.50;99.90
4556;DHT22;2290;48.674;9.018;2022-09-12T08:47:07;19.60;99.90
4556;DHT22;2290;48.674;9.018;2022-09-12T08:49:57;19.60;99.90
4556;DHT22;2290;48.674;9.018;2022-09-12T08:55:29;19.60;99.90
4556;DHT22;2290;48.674;9.018;2022-09-12T08:57:56;19.60;99.90
4556;DHT22;2290;48.674;9.018;2022-09-12T09:00:23;19.60;99.90
4556;DHT22;2290;48.674;9.018;2022-09-12T09:08:58;19.80;99.90
4556;DHT22;2290;48.674;9.018;2022-09-12T09:14:07;20.10;99.90
4556;DHT22;2290;48.674;9.018;2022-09-12T09:16:55;20.20;99.90
4556;DHT22;2290;48.674;9.018;2022-09-12T09:19:27;20.30;99.90
4556;DHT22;2290;48.674;9.018;2022-09-12T09:24:50;20.60;99.90
4556;DHT22;2290;48.674;9.018;2022-09-12T09:29:53;20.80;99.90
4556;DHT22;2290;48.674;9.018;2022-09-12T09:32:33;20.90;99.90
4556;DHT22;2290;48.674;9.018;2022-09-12T09:35:21;21.00;99.90
4556;DHT22;2290;48.674;9.018;2022-09-12T09:38:15;21.10;99.90
4556;DHT22;2290;48.674;9.018;2022-09-12T09:43:23;21.30;99.90
4556;DHT22;2290;48.674;9.018;2022-09-12T09:45:50;21.20;99.90
4556;DHT22;2290;48.674;9.018;2022-09-12T09:48:21;21.30;99.90
4556;DHT22;2290;48.674;9.018;2022-09-12T09:50:48;21.40;99.90
4556;DHT22;2290;48.674;9.018;2022-09-12T09:53:38;21.40;99.90
4556;DHT22;2290;48.674;9.018;2022-09-12T09:56:13;21.50;99.90
4556;DHT22;2290;48.674;9.018;2022-09-12T09:58:39;21.50;99.90
4556;DHT22;2290;48.674;9.018;2022-09-12T10:01:14;21.70;99.90
4556;DHT22;2290;48.674;9.018;2022-09-12T10:03:50;21.90;99.90
4556;DHT22;2290;48.674;9.018;2022-09-12T10:06:21;22.10;99.90
4556;DHT22;2290;48.674;9.018;2022-09-12T10:08:48;22.40;99.90
4556;DHT22;2290;48.674;9.018;2022-09-12T10:11:21;22.50;99.90
4556;DHT22;2290;48.674;9.018;2022-09-12T10:13:51;22.40;99.90
4556;DHT22;2290;48.674;9.018;2022-09-12T10:16:22;22.50;99.90
4556;DHT22;2290;48.674;9.018;2022-09-12T10:18:50;22.50;99.90
4556;DHT22;2290;48.674;9.018;2022-09-12T10:21:18;22.60;99.90
4556;DHT22;2290;48.674;9.018;2022-09-12T10:23:45;22.60;99.90
4556;DHT22;2290;48.674;9.018;2022-09-12T10:26:15;22.60;99.90
4556;DHT22;2290;48.674;9.018;2022-09-12T10:28:50;22.80;99.90
4556;DHT22;2290;48.674;9.018;2022-09-12T10:31:32;23.00;99.90
4556;DHT22;2290;48.674;9.018;2022-09-12T10:34:00;23.20;99.90
4556;DHT22;2290;48.674;9.018;2022-09-12T10:36:35;23.20;99.90
4556;DHT22;2290;48.674;9.018;2022-09-12T10:39:01;23.50;99.90
4556;DHT22;2290;48.674;9.018;2022-09-12T10:41:37;23.60;99.90
4556;DHT22;2290;48.674;9.018;2022-09-12T10:44:12;23.80;99.90
4556;DHT22;2290;48.674;9.018;2022-09-12T10:46:38;23.90;98.80
4556;DHT22;2290;48.674;9.018;2022-09-12T10:51:39;24.00;98.90
4556;DHT22;2290;48.674;9.018;2022-09-12T10:54:07;24.00;99.10
4556;DHT22;2290;48.674;9.018;2022-09-12T10:56:43;23.90;96.80
4556;DHT22;2290;48.674;9.018;2022-09-12T10:59:33;23.90;97.50
4556;DHT22;2290;48.674;9.018;2022-09-12T11:02:22;23.90;97.10
4556;DHT22;2290;48.674;9.018;2022-09-12T11:05:10;24.10;97.50
4556;DHT22;2290;48.674;9.018;2022-09-12T11:07:48;24.10;98.30
4556;DHT22;2290;48.674;9.018;2022-09-12T11:10:41;24.20;98.10
4556;DHT22;2290;48.674;9.018;2022-09-12T11:27:00;24.70;97.20
4556;DHT22;2290;48.674;9.018;2022-09-12T11:29:57;24.80;97.30
4556;DHT22;2290;48.674;9.018;2022-09-12T11:35:18;24.90;96.30
4556;DHT22;2290;48.674;9.018;2022-09-12T11:41:22;24.60;96.80
4556;DHT22;2290;48.674;9.018;2022-09-12T11:48:58;24.80;96.50
4556;DHT22;2290;48.674;9.018;2022-09-12T11:54:27;25.00;94.30
4556;DHT22;2290;48.674;9.018;2022-09-12T11:56:59;25.00;94.90
4556;DHT22;2290;48.674;9.018;2022-09-12T11:59:43;25.10;95.50
4556;DHT22;2290;48.674;9.018;2022-09-12T12:02:25;25.10;95.10
4556;DHT22;2290;48.674;9.018;2022-09-12T12:07:56;25.30;94.50
4556;DHT22;2290;48.674;9.018;2022-09-12T12:10:30;25.40;94.70
4556;DHT22;2290;48.674;9.018;2022-09-12T12:12:58;25.60;94.60
4556;DHT22;2290;48.674;9.018;2022-09-12T12:15:26;25.70;94.70
4556;DHT22;2290;48.674;9.018;2022-09-12T12:18:04;25.80;94.90
4556;DHT22;2290;48.674;9.018;2022-09-12T12:20:30;26.00;94.20
4556;DHT22;2290;48.674;9.018;2022-09-12T12:22:56;25.90;94.30
4556;DHT22;2290;48.674;9.018;2022-09-12T12:25:25;26.00;95.00
4556;DHT22;2290;48.674;9.018;2022-09-12T12:28:02;26.20;95.00
4556;DHT22;2290;48.674;9.018;2022-09-12T12:38:01;26.30;91.70
4556;DHT22;2290;48.674;9.018;2022-09-12T12:40:29;26.40;92.60
4556;DHT22;2290;48.674;9.018;2022-09-12T12:48:08;26.70;91.60
4556;DHT22;2290;48.674;9.018;2022-09-12T12:50:34;26.80;91.60
4556;DHT22;2290;48.674;9.018;2022-09-12T12:53:05;26.80;91.30
4556;DHT22;2290;48.674;9.018;2022-09-12T12:55:36;27.00;91.20
4556;DHT22;2290;48.674;9.018;2022-09-12T12:58:06;27.00;88.90
4556;DHT22;2290;48.674;9.018;2022-09-12T13:00:36;27.10;90.40
4556;DHT22;2290;48.674;9.018;2022-09-12T13:05:41;27.40;89.60
4556;DHT22;2290;48.674;9.018;2022-09-12T13:14:01;27.70;87.70
4556;DHT22;2290;48.674;9.018;2022-09-12T13:16:30;27.70;89.20
4556;DHT22;2290;48.674;9.018;2022-09-12T13:18:59;27.80;88.80
4556;DHT22;2290;48.674;9.018;2022-09-12T13:21:26;27.90;88.50
4556;DHT22;2290;48.674;9.018;2022-09-12T13:24:12;28.30;87.90
4556;DHT22;2290;48.674;9.018;2022-09-12T13:26:42;28.50;85.70
4556;DHT22;2290;48.674;9.018;2022-09-12T13:29:22;28.70;84.40
4556;DHT22;2290;48.674;9.018;2022-09-12T13:31:59;28.90;83.10
4556;DHT22;2290;48.674;9.018;2022-09-12T13:34:32;29.10;84.20
4556;DHT22;2290;48.674;9.018;2022-09-12T13:43:16;29.40;81.40
4556;DHT22;2290;48.674;9.018;2022-09-12T13:45:44;29.50;81.80
4556;DHT22;2290;48.674;9.018;2022-09-12T13:48:15;29.30;82.60
4556;DHT22;2290;48.674;9.018;2022-09-12T13:53:16;29.00;83.00
4556;DHT22;2290;48.674;9.018;2022-09-12T13:55:45;29.00;82.50
4556;DHT22;2290;48.674;9.018;2022-09-12T13:58:16;29.00;83.10
4556;DHT22;2290;48.674;9.018;2022-09-12T14:00:43;29.00;82.60
4556;DHT22;2290;48.674;9.018;2022-09-12T14:03:27;28.90;82.50
4556;DHT22;2290;48.674;9.018;2022-09-12T14:06:11;29.00;81.80
4556;DHT22;2290;48.674;9.018;2022-09-12T14:08:40;29.00;82.50
4556;DHT22;2290;48.674;9.018;2022-09-12T14:11:09;29.00;82.70
4556;DHT22;2290;48.674;9.018;2022-09-12T14:13:36;29.20;82.90
4556;DHT22;2290;48.674;9.018;2022-09-12T14:16:04;29.20;82.60
4556;DHT22;2290;48.674;9.018;2022-09-12T14:18:35;29.20;81.40
4556;DHT22;2290;48.674;9.018;2022-09-12T14:21:10;29.20;81.00
4556;DHT22;2290;48.674;9.018;2022-09-12T14:23:40;29.30;81.10
4556;DHT22;2290;48.674;9.018;2022-09-12T14:26:10;29.60;80.40
4556;DHT22;2290;48.674;9.018;2022-09-12T14:28:39;29.70;81.00
4556;DHT22;2290;48.674;9.018;2022-09-12T14:31:29;29.90;80.00
4556;DHT22;2290;48.674;9.018;2022-09-12T14:34:13;30.30;79.70
4556;DHT22;2290;48.674;9.018;2022-09-12T14:36:50;30.50;73.70
4556;DHT22;2290;48.674;9.018;2022-09-12T14:42:26;30.60;74.10
4556;DHT22;2290;48.674;9.018;2022-09-12T14:45:14;30.90;72.70
4556;DHT22;2290;48.674;9.018;2022-09-12T14:47:42;31.60;72.30
4556;DHT22;2290;48.674;9.018;2022-09-12T14:50:24;32.60;71.20
4556;DHT22;2290;48.674;9.018;2022-09-12T14:55:50;35.20;65.40
4556;DHT22;2290;48.674;9.018;2022-09-12T15:03:51;38.00;58.10
4556;DHT22;2290;48.674;9.018;2022-09-12T15:06:38;38.80;56.90
4556;DHT22;2290;48.674;9.018;2022-09-12T15:09:11;39.40;54.90
4556;DHT22;2290;48.674;9.018;2022-09-12T15:11:37;40.20;52.30
4556;DHT22;2290;48.674;9.018;2022-09-12T15:14:21;40.40;52.30
4556;DHT22;2290;48.674;9.018;2022-09-12T15:16:47;40.70;51.50
4556;DHT22;2290;48.674;9.018;2022-09-12T15:19:12;40.80;50.40
4556;DHT22;2290;48.674;9.018;2022-09-12T15:21:38;40.50;49.00
4556;DHT22;2290;48.674;9.018;2022-09-12T15:24:04;40.60;49.50
4556;DHT22;2290;48.674;9.018;2022-09-12T15:26:29;40.20;50.10
4556;DHT22;2290;48.674;9.018;2022-09-12T15:28:56;40.70;49.00
4556;DHT22;2290;48.674;9.018;2022-09-12T15:31:27;40.60;48.60
4556;DHT22;2290;48.674;9.018;2022-09-12T15:33:55;41.30;47.10
4556;DHT22;2290;48.674;9.018;2022-09-12T15:36:22;41.70;46.90
4556;DHT22;2290;48.674;9.018;2022-09-12T15:38:48;41.80;46.60
4556;DHT22;2290;48.674;9.018;2022-09-12T15:41:34;42.00;45.80
4556;DHT22;2290;48.674;9.018;2022-09-12T15:44:03;42.10;45.90
4556;DHT22;2290;48.674;9.018;2022-09-12T15:46:28;42.20;45.20
4556;DHT22;2290;48.674;9.018;2022-09-12T15:48:54;42.10;45.30
4556;DHT22;2290;48.674;9.018;2022-09-12T15:51:20;41.90;44.00
4556;DHT22;2290;48.674;9.018;2022-09-12T15:53:47;41.80;43.90
4556;DHT22;2290;48.674;9.018;2022-09-12T15:56:17;42.20;44.30
4556;DHT22;2290;48.674;9.018;2022-09-12T15:58:43;42.20;44.00
4556;DHT22;2290;48.674;9.018;2022-09-12T16:01:11;42.10;44.40
4556;DHT22;2290;48.674;9.018;2022-09-12T16:03:37;42.50;43.90
4556;DHT22;2290;48.674;9.018;2022-09-12T16:06:03;42.00;44.10
4556;DHT22;2290;48.674;9.018;2022-09-12T16:08:30;42.00;43.80
4556;DHT22;2290;48.674;9.018;2022-09-12T16:11:07;42.10;43.90
4556;DHT22;2290;48.674;9.018;2022-09-12T16:13:34;41.30;43.80
4556;DHT22;2290;48.674;9.018;2022-09-12T16:15:59;40.60;44.60
4556;DHT22;2290;48.674;9.018;2022-09-12T16:18:26;40.00;45.50
4556;DHT22;2290;48.674;9.018;2022-09-12T16:20:52;39.40;46.10
4556;DHT22;2290;48.674;9.018;2022-09-12T16:23:18;38.90;46.70
4556;DHT22;2290;48.674;9.018;2022-09-12T16:25:44;37.50;47.80
4556;DHT22;2290;48.674;9.018;2022-09-12T16:28:10;35.80;49.30
4556;DHT22;2290;48.674;9.018;2022-09-12T16:30:36;34.40;51.30
4556;DHT22;2290;48.674;9.018;2022-09-12T16:33:01;33.00;53.20
4556;DHT22;2290;48.674;9.018;2022-09-12T16:35:27;31.90;54.40
4556;DHT22;2290;48.674;9.018;2022-09-12T16:37:53;31.00;55.90
4556;DHT22;2290;48.674;9.018;2022-09-12T16:40:18;30.30;57.60
4556;DHT22;2290;48.674;9.018;2022-09-12T16:42:44;29.70;59.20
4556;DHT22;2290;48.674;9.018;2022-09-12T16:45:11;29.00;60.10
4556;DHT22;2290;48.674;9.018;2022-09-12T16:47:37;28.60;62.20
4556;DHT22;2290;48.674;9.018;2022-09-12T16:50:03;28.20;63.40
4556;DHT22;2290;48.674;9.018;2022-09-12T16:52:29;27.80;64.70
4556;DHT22;2290;48.674;9.018;2022-09-12T16:54:55;27.60;65.00
4556;DHT22;2290;48.674;9.018;2022-09-12T16:57:21;27.30;66.20
4556;DHT22;2290;48.674;9.018;2022-09-12T16:59:47;27.30;67.00
4556;DHT22;2290;48.674;9.018;2022-09-12T17:02:14;27.50;66.60
4556;DHT22;2290;48.674;9.018;2022-09-12T17:04:40;27.50;66.40
4556;DHT22;2290;48.674;9.018;2022-09-12T17:07:06;27.50;66.80
4556;DHT22;2290;48.674;9.018;2022-09-12T17:09:32;27.30;66.80
4556;DHT22;2290;48.674;9.018;2022-09-12T17:11:58;27.20;67.80
4556;DHT22;2290;48.674;9.018;2022-09-12T17:14:23;27.00;69.60
4556;DHT22;2290;48.674;9.018;2022-09-12T17:16:50;26.90;71.80
4556;DHT22;2290;48.674;9.018;2022-09-12T17:19:22;26.60;72.60
4556;DHT22;2290;48.674;9.018;2022-09-12T17:21:48;26.30;74.40
4556;DHT22;2290;48.674;9.018;2022-09-12T17:24:16;26.00;76.00
4556;DHT22;2290;48.674;9.018;2022-09-12T17:26:42;25.80;77.50
4556;DHT22;2290;48.674;9.018;2022-09-12T17:29:09;25.60;79.40
4556;DHT22;2290;48.674;9.018;2022-09-12T17:31:34;25.20;81.50
4556;DHT22;2290;48.674;9.018;2022-09-12T17:34:01;24.90;83.40
4556;DHT22;2290;48.674;9.018;2022-09-12T17:36:28;24.60;85.10
4556;DHT22;2290;48.674;9.018;2022-09-12T17:38:54;24.20;86.70
4556;DHT22;2290;48.674;9.018;2022-09-12T17:41:21;23.80;88.60
4556;DHT22;2290;48.674;9.018;2022-09-12T17:43:55;23.40;90.00
4556;DHT22;2290;48.674;9.018;2022-09-12T17:46:24;23.10;90.50
4556;DHT22;2290;48.674;9.018;2022-09-12T17:48:54;22.80;91.30
4556;DHT22;2290;48.674;9.018;2022-09-12T17:51:23;22.50;92.50
4556;DHT22;2290;48.674;9.018;2022-09-12T17:54:13;22.30;93.20
4556;DHT22;2290;48.674;9.018;2022-09-12T17:56:40;21.90;94.20
4556;DHT22;2290;48.674;9.018;2022-09-12T17:59:09;21.80;95.40
4556;DHT22;2290;48.674;9.018;2022-09-12T18:01:37;21.40;96.40
4556;DHT22;2290;48.674;9.018;2022-09-12T18:04:21;21.20;97.00
4556;DHT22;2290;48.674;9.018;2022-09-12T18:06:47;21.00;98.00
4556;DHT22;2290;48.674;9.018;2022-09-12T18:09:18;20.90;98.90
4556;DHT22;2290;48.674;9.018;2022-09-12T18:11:44;20.70;99.30
4556;DHT22;2290;48.674;9.018;2022-09-12T18:14:10;20.50;99.90
4556;DHT22;2290;48.674;9.018;2022-09-12T18:16:36;20.40;99.90
4556;DHT22;2290;48.674;9.018;2022-09-12T18:19:02;20.30;99.90
4556;DHT22;2290;48.674;9.018;2022-09-12T18:21:28;20.20;99.90
4556;DHT22;2290;48.674;9.018;2022-09-12T18:23:55;19.90;99.90
4556;DHT22;2290;48.674;9.018;2022-09-12T18:26:24;20.00;99.90
4556;DHT22;2290;48.674;9.018;2022-09-12T18:28:50;19.70;99.90
4556;DHT22;2290;48.674;9.018;2022-09-12T18:31:18;19.50;99.90